KOMK/OMK METAR and TAF weather

Enter ICAO airport designator
Station Type Date Time Source
KOMK METAR 2022/12/10 01:53 UTC NOAA

KOMK 100153Z AUTO 30003KT 1 1/2SM -SN BR BKN024 OVC031 M04/M06 A2988 RMK AO2 SLP138 P0002 T10441061


Station Type Date Time Source
KOMK Decoded METAR 2022/12/10 01:53 UTC NOAA

OMAK AIRPORT, WA, United States (KOMK) 48-28N 119-31W 395M
Dec 09, 2022 - 08:53 PM EST / 2022.12.10 0153 UTC
Wind: from the WNW (300 degrees) at 3 MPH (3 KT):0
Visibility: 1 1/2 mile(s):0
Sky conditions: overcast
Weather: light snow; mist
Precipitation last hour: 0.02 inches
Temperature: 24.1 F (-4.4 C)
Dew Point: 21.0 F (-6.1 C)
Relative Humidity: 87%
Pressure (altimeter): 29.88 in. Hg (1011 hPa)
ob: KOMK 100153Z AUTO 30003KT 1 1/2SM -SN BR BKN024 OVC031 M04/M06 A2988 RMK AO2 SLP138 P0002 T10441061
cycle: 2

Station Type Date Time Source
KOMK TAF UTC NOAA

Error!

Example: see airport list